createdAt,value
2022-09-29T00:00:32.298Z,10.40
2022-09-29T00:02:04.056Z,10.23
2022-09-29T00:03:36.570Z,9.57
2022-09-29T00:05:08.528Z,9.40
2022-09-29T00:06:40.275Z,9.73
2022-09-29T00:08:12.018Z,9.43
2022-09-29T00:09:43.756Z,9.45
2022-09-29T00:11:16.642Z,10.25
2022-09-29T00:14:20.077Z,9.82
2022-09-29T00:15:56.429Z,10.35
2022-09-29T00:17:28.216Z,9.48
2022-09-29T00:19:00.021Z,9.65
2022-09-29T00:20:31.783Z,10.38
2022-09-29T00:22:03.517Z,10.02
2022-09-29T00:23:36.109Z,10.85
2022-09-29T00:25:07.907Z,10.13
2022-09-29T00:26:39.670Z,10.10
2022-09-29T00:28:11.453Z,10.93
2022-09-29T00:29:43.465Z,10.63
2022-09-29T00:31:15.342Z,9.50
2022-09-29T00:32:47.184Z,10.55
2022-09-29T00:34:19.222Z,10.18
2022-09-29T00:35:59.120Z,11.38
2022-09-29T00:37:31.098Z,9.90
2022-09-29T00:39:02.869Z,10.35
2022-09-29T00:40:35.167Z,9.95
2022-09-29T00:42:06.975Z,10.57
2022-09-29T00:43:47.763Z,9.07
2022-09-29T00:45:24.352Z,10.15
2022-09-29T00:46:59.869Z,9.30
2022-09-29T00:48:32.904Z,9.57
2022-09-29T00:50:14.347Z,10.30
2022-09-29T00:51:48.865Z,9.82
2022-09-29T00:53:22.004Z,9.57
2022-09-29T00:54:57.467Z,9.90
2022-09-29T00:56:30.268Z,10.25
2022-09-29T00:58:05.986Z,9.43
2022-09-29T00:59:46.549Z,9.77
2022-09-29T01:01:18.348Z,10.18
2022-09-29T01:02:57.663Z,9.00
2022-09-29T01:04:29.464Z,9.23
2022-09-29T01:06:03.216Z,9.43
2022-09-29T01:07:34.981Z,9.77
2022-09-29T01:09:08.537Z,9.35
2022-09-29T01:10:41.425Z,9.50
2022-09-29T01:12:13.217Z,9.50
2022-09-29T01:13:45.084Z,8.90
2022-09-29T01:15:17.993Z,9.45
2022-09-29T01:18:21.371Z,10.60
2022-09-29T01:20:13.356Z,9.10
2022-09-29T01:21:54.345Z,9.30
2022-09-29T01:24:01.618Z,9.27
2022-09-29T01:25:51.714Z,9.18
2022-09-29T01:27:38.569Z,9.90
2022-09-29T01:29:15.899Z,9.40
2022-09-29T01:31:02.867Z,10.52
2022-09-29T01:32:43.643Z,10.73
2022-09-29T01:34:34.196Z,10.77
2022-09-29T01:36:14.816Z,10.40
2022-09-29T01:37:54.307Z,9.88
2022-09-29T01:39:30.622Z,11.02
2022-09-29T01:41:16.334Z,10.73
2022-09-29T01:43:23.490Z,10.20
2022-09-29T01:44:59.444Z,10.50
2022-09-29T01:46:33.336Z,11.52
2022-09-29T01:48:07.746Z,10.50
2022-09-29T01:49:44.543Z,10.75
2022-09-29T01:51:19.463Z,10.63
2022-09-29T01:52:56.318Z,9.77
2022-09-29T01:54:30.969Z,9.88
2022-09-29T01:56:04.064Z,10.43
2022-09-29T01:57:39.568Z,9.35
2022-09-29T01:59:29.816Z,10.82
2022-09-29T02:01:03.997Z,11.07
2022-09-29T02:02:42.006Z,11.82
2022-09-29T02:04:16.180Z,11.95
2022-09-29T02:05:56.242Z,11.65
2022-09-29T02:07:39.416Z,12.27
2022-09-29T02:09:15.004Z,12.60
2022-09-29T02:11:01.404Z,12.57
2022-09-29T02:12:34.537Z,12.73
2022-09-29T02:14:11.832Z,13.00
2022-09-29T02:15:45.709Z,13.73
2022-09-29T02:17:21.763Z,13.82
2022-09-29T02:18:58.281Z,13.82
2022-09-29T02:20:31.181Z,14.00
2022-09-29T02:22:02.894Z,13.98
2022-09-29T02:23:34.568Z,14.43
2022-09-29T02:25:08.544Z,14.73
2022-09-29T02:26:41.730Z,14.00
2022-09-29T02:28:13.513Z,16.08
2022-09-29T02:29:45.193Z,15.02
2022-09-29T02:31:16.958Z,15.85
2022-09-29T02:32:48.769Z,15.35
2022-09-29T02:34:21.846Z,14.50
2022-09-29T02:36:08.780Z,15.85
2022-09-29T02:37:46.619Z,14.70
2022-09-29T02:39:35.718Z,15.55
2022-09-29T02:41:13.875Z,14.32
2022-09-29T02:42:54.703Z,16.58
2022-09-29T02:44:55.500Z,15.18
2022-09-29T02:46:34.381Z,15.50
2022-09-29T02:48:14.994Z,16.00
2022-09-29T02:49:46.653Z,16.23
2022-09-29T02:51:24.280Z,14.00
2022-09-29T02:53:01.985Z,14.75
2022-09-29T02:54:42.648Z,15.95
2022-09-29T02:56:17.368Z,16.25
2022-09-29T02:57:48.993Z,15.07
2022-09-29T02:59:25.131Z,15.88
2022-09-29T03:00:57.907Z,15.55
2022-09-29T03:02:29.640Z,15.80
2022-09-29T03:04:04.436Z,16.08
2022-09-29T03:05:36.597Z,17.05
2022-09-29T03:07:08.327Z,16.40
2022-09-29T03:08:40.037Z,16.85
2022-09-29T03:10:12.357Z,16.70
2022-09-29T03:11:44.214Z,15.52
2022-09-29T03:13:15.986Z,15.98
2022-09-29T03:14:50.405Z,16.73
2022-09-29T03:16:22.104Z,17.65
2022-09-29T03:17:57.443Z,17.17
2022-09-29T03:19:29.263Z,16.27
2022-09-29T03:21:00.925Z,15.82
2022-09-29T03:22:32.644Z,16.20
2022-09-29T03:24:04.345Z,16.77
2022-09-29T03:25:36.009Z,15.82
2022-09-29T03:27:08.172Z,17.45
2022-09-29T03:28:40.059Z,13.60
2022-09-29T03:30:12.362Z,16.08
2022-09-29T03:31:44.033Z,14.60
2022-09-29T03:33:15.849Z,15.10
2022-09-29T03:34:47.581Z,15.77
2022-09-29T03:36:19.389Z,15.75
2022-09-29T03:37:51.070Z,14.65
2022-09-29T03:39:22.798Z,15.18
2022-09-29T03:40:54.502Z,15.32
2022-09-29T03:42:28.422Z,15.75
2022-09-29T03:44:03.258Z,16.02
2022-09-29T03:45:34.954Z,16.52
2022-09-29T03:47:06.650Z,15.95
2022-09-29T03:48:41.643Z,15.55
2022-09-29T03:50:13.792Z,16.27
2022-09-29T03:51:45.686Z,17.05
2022-09-29T03:53:18.012Z,16.73
2022-09-29T03:54:49.739Z,16.05
2022-09-29T03:56:21.462Z,15.80
2022-09-29T03:57:53.135Z,15.63
2022-09-29T03:59:24.827Z,15.68
2022-09-29T04:00:57.127Z,14.48
2022-09-29T04:02:28.914Z,15.55
2022-09-29T04:04:00.750Z,16.27
2022-09-29T04:05:32.535Z,15.10
2022-09-29T04:07:04.207Z,14.90
2022-09-29T04:08:37.267Z,14.82
2022-09-29T04:10:09.159Z,14.80
2022-09-29T04:11:40.820Z,15.00
2022-09-29T04:13:15.476Z,15.13
2022-09-29T04:14:49.508Z,16.27
2022-09-29T04:16:21.213Z,15.45
2022-09-29T04:17:54.150Z,15.00
2022-09-29T04:19:25.875Z,15.80
2022-09-29T04:21:00.725Z,14.70
2022-09-29T04:22:32.570Z,14.63
2022-09-29T04:24:04.279Z,15.15
2022-09-29T04:25:35.935Z,15.50
2022-09-29T04:27:07.608Z,14.55
2022-09-29T04:28:39.739Z,15.20
2022-09-29T04:30:11.588Z,14.88
2022-09-29T04:31:43.410Z,13.98
2022-09-29T04:33:15.133Z,14.13
2022-09-29T04:34:48.554Z,14.55
2022-09-29T04:36:20.174Z,13.45
2022-09-29T04:37:54.853Z,14.18
2022-09-29T04:39:26.528Z,13.73
2022-09-29T04:40:58.337Z,14.00
2022-09-29T04:42:30.029Z,13.25
2022-09-29T04:44:02.765Z,13.60
2022-09-29T04:45:34.493Z,14.52
2022-09-29T04:47:06.311Z,13.73
2022-09-29T04:48:38.321Z,13.82
2022-09-29T04:50:10.059Z,14.30
2022-09-29T04:51:42.031Z,14.50
2022-09-29T04:53:14.348Z,13.32
2022-09-29T04:54:46.091Z,13.23
2022-09-29T04:56:17.933Z,13.32
2022-09-29T04:57:49.986Z,13.35
2022-09-29T04:59:21.900Z,12.60
2022-09-29T05:00:53.655Z,12.88
2022-09-29T05:02:25.676Z,13.27
2022-09-29T05:03:57.628Z,12.60
2022-09-29T05:05:29.513Z,13.80
2022-09-29T05:07:02.316Z,14.05
2022-09-29T05:10:06.625Z,11.32
2022-09-29T05:11:38.580Z,12.77
2022-09-29T05:13:10.682Z,13.90
2022-09-29T05:14:42.380Z,12.95
2022-09-29T05:16:14.115Z,13.75
2022-09-29T05:17:45.847Z,13.52
2022-09-29T05:19:17.594Z,13.60
2022-09-29T05:21:10.283Z,13.57
2022-09-29T05:22:40.969Z,13.63
2022-09-29T05:24:12.849Z,14.98
2022-09-29T05:25:44.571Z,13.45
2022-09-29T05:27:16.227Z,15.35
2022-09-29T05:28:49.125Z,14.65
2022-09-29T05:30:20.802Z,16.08
2022-09-29T05:31:52.566Z,14.80
2022-09-29T05:33:24.195Z,14.45
2022-09-29T05:34:55.867Z,15.27
2022-09-29T05:36:27.544Z,13.45
2022-09-29T05:37:59.246Z,13.45
2022-09-29T05:39:34.287Z,13.15
2022-09-29T05:41:07.038Z,14.27
2022-09-29T05:42:38.696Z,12.60
2022-09-29T05:44:10.415Z,12.85
2022-09-29T05:45:42.720Z,13.27
2022-09-29T05:47:14.423Z,12.35
2022-09-29T05:48:49.463Z,13.70
2022-09-29T05:50:21.265Z,13.57
2022-09-29T05:51:52.978Z,14.05
2022-09-29T05:53:24.961Z,13.15
2022-09-29T05:54:56.631Z,13.65
2022-09-29T05:56:28.397Z,13.57
2022-09-29T05:58:00.070Z,13.77
2022-09-29T05:59:31.774Z,14.65
2022-09-29T06:01:13.927Z,15.60
2022-09-29T06:02:45.783Z,14.77
2022-09-29T06:04:17.679Z,15.15
2022-09-29T06:05:49.376Z,14.32
2022-09-29T06:07:21.050Z,15.80
2022-09-29T06:08:52.907Z,15.00
2022-09-29T06:10:24.728Z,14.13
2022-09-29T06:11:56.406Z,16.65
2022-09-29T06:13:28.121Z,14.85
2022-09-29T06:14:59.790Z,16.20
2022-09-29T06:16:32.468Z,16.77
2022-09-29T06:18:04.178Z,15.73
2022-09-29T06:19:35.855Z,16.75
2022-09-29T06:21:08.894Z,17.48
2022-09-29T06:22:40.570Z,15.85
2022-09-29T06:24:12.251Z,17.02
2022-09-29T06:25:43.935Z,16.52
2022-09-29T06:27:17.572Z,17.17
2022-09-29T06:28:49.271Z,16.50
2022-09-29T06:30:21.134Z,18.27
2022-09-29T06:31:53.727Z,18.23
2022-09-29T06:33:25.553Z,18.13
2022-09-29T06:35:16.034Z,17.60
2022-09-29T06:37:06.289Z,17.15
2022-09-29T06:38:38.115Z,18.30
2022-09-29T06:40:11.374Z,19.10
2022-09-29T06:41:52.300Z,18.58
2022-09-29T06:43:24.059Z,19.10
2022-09-29T06:44:55.942Z,19.67
2022-09-29T06:46:27.710Z,18.75
2022-09-29T06:48:00.425Z,19.58
2022-09-29T06:49:32.119Z,17.95
2022-09-29T06:51:10.146Z,18.40
2022-09-29T06:52:43.362Z,18.70
2022-09-29T06:54:20.536Z,17.85
2022-09-29T07:00:24.075Z,17.13
2022-09-29T07:01:55.757Z,17.15
2022-09-29T07:03:28.116Z,17.95
2022-09-29T07:04:59.819Z,17.92
2022-09-29T07:06:31.668Z,16.33
2022-09-29T07:08:03.866Z,17.35
2022-09-29T07:09:35.530Z,17.77
2022-09-29T07:11:07.703Z,16.95
2022-09-29T07:12:39.332Z,17.88
2022-09-29T07:14:11.009Z,17.05
2022-09-29T07:15:42.743Z,16.40
2022-09-29T07:17:15.586Z,18.45
2022-09-29T07:20:18.729Z,17.25
2022-09-29T07:21:50.454Z,17.60
2022-09-29T07:23:22.146Z,17.30
2022-09-29T07:24:55.190Z,17.73
2022-09-29T07:26:26.887Z,17.52
2022-09-29T07:27:58.500Z,17.02
2022-09-29T07:29:33.107Z,17.48
2022-09-29T07:31:14.372Z,17.10
2022-09-29T07:32:58.220Z,16.90
2022-09-29T07:34:31.368Z,17.33
2022-09-29T07:36:03.023Z,17.67
2022-09-29T07:37:35.718Z,16.30
2022-09-29T07:39:07.443Z,16.85
2022-09-29T07:40:39.184Z,16.30
2022-09-29T07:42:11.028Z,16.45
2022-09-29T07:43:42.749Z,15.88
2022-09-29T07:45:14.508Z,16.27
2022-09-29T07:46:48.279Z,16.02
2022-09-29T07:48:19.984Z,14.55
2022-09-29T07:49:52.194Z,14.15
2022-09-29T07:51:23.946Z,14.60
2022-09-29T07:52:55.614Z,15.32
2022-09-29T07:54:29.647Z,13.98
2022-09-29T08:13:44.495Z,13.20
2022-09-29T08:15:58.022Z,12.32
2022-09-29T08:19:47.387Z,13.45
2022-09-29T08:21:24.398Z,11.65
2022-09-29T08:22:58.673Z,12.38
2022-09-29T08:24:58.334Z,11.93
2022-09-29T08:26:43.475Z,10.98
2022-09-29T08:30:39.014Z,12.18
2022-09-29T08:37:19.781Z,11.18
2022-09-29T08:43:10.756Z,10.25
2022-09-29T08:44:53.432Z,9.25
2022-09-29T08:46:34.144Z,9.82
2022-09-29T08:48:22.158Z,9.85
2022-09-29T08:55:02.109Z,9.57
2022-09-29T08:56:40.296Z,9.50
2022-09-29T08:58:14.557Z,9.27
2022-09-29T08:59:56.295Z,10.23
2022-09-29T09:01:28.136Z,9.07
2022-09-29T09:03:11.177Z,9.33
2022-09-29T09:07:47.546Z,9.90
2022-09-29T09:09:25.393Z,9.25
2022-09-29T09:13:26.615Z,8.75
2022-09-29T09:14:58.903Z,9.43
2022-09-29T09:16:35.899Z,10.38
2022-09-29T09:18:20.307Z,9.82
2022-09-29T09:19:57.608Z,8.77
2022-09-29T09:24:03.325Z,7.82
2022-09-29T09:25:41.541Z,8.88
2022-09-29T09:27:15.755Z,8.88
2022-09-29T09:28:54.411Z,10.45
2022-09-29T09:30:28.101Z,8.80
2022-09-29T09:32:27.637Z,8.75
2022-09-29T09:34:14.817Z,8.57
2022-09-29T09:35:59.054Z,8.65
2022-09-29T09:37:38.431Z,8.20
2022-09-29T09:39:10.451Z,8.55
2022-09-29T09:40:59.499Z,8.38
2022-09-29T09:42:34.119Z,7.28
2022-09-29T09:44:06.047Z,7.40
2022-09-29T09:45:40.138Z,7.17
2022-09-29T09:47:26.836Z,7.35
2022-09-29T09:48:58.702Z,6.90
2022-09-29T09:50:30.631Z,7.03
2022-09-29T09:53:48.583Z,7.38
2022-09-29T09:55:26.585Z,6.60
2022-09-29T09:57:10.656Z,7.63
2022-09-29T09:59:05.629Z,8.05
2022-09-29T10:01:09.222Z,8.15
2022-09-29T10:05:13.878Z,7.72
2022-09-29T10:08:20.662Z,7.60
2022-09-29T10:09:02.469Z,9.02
2022-09-29T10:10:34.303Z,9.30
2022-09-29T10:12:23.693Z,8.17
2022-09-29T10:14:20.396Z,8.20
2022-09-29T10:16:28.286Z,8.10
2022-09-29T10:37:25.125Z,6.88
2022-09-29T10:39:00.922Z,6.28
2022-09-29T10:40:37.363Z,7.20
2022-09-29T10:42:26.475Z,6.45
2022-09-29T10:44:14.574Z,6.90
2022-09-29T10:45:49.544Z,7.18
2022-09-29T10:47:22.807Z,8.23
2022-09-29T10:49:09.503Z,7.38
2022-09-29T10:50:52.681Z,7.72
2022-09-29T10:53:56.567Z,6.75
2022-09-29T10:55:30.088Z,7.03
2022-09-29T10:57:12.620Z,8.38
2022-09-29T10:59:01.406Z,6.95
2022-09-29T11:00:36.214Z,6.90
2022-09-29T11:02:18.656Z,6.43
2022-09-29T11:03:53.674Z,6.10
2022-09-29T11:05:26.004Z,6.35
2022-09-29T11:07:06.669Z,6.40
2022-09-29T11:08:58.591Z,4.95
2022-09-29T11:10:32.035Z,5.55
2022-09-29T11:12:09.213Z,5.43
2022-09-29T11:13:43.109Z,5.50
2022-09-29T11:15:23.405Z,4.95
2022-09-29T11:16:59.202Z,6.25
2022-09-29T11:18:38.537Z,4.90
2022-09-29T11:20:12.375Z,5.28
2022-09-29T11:21:44.039Z,5.28
2022-09-29T11:23:20.971Z,5.13
2022-09-29T11:24:55.634Z,5.07
2022-09-29T11:26:27.380Z,4.30
2022-09-29T11:28:17.460Z,3.95
2022-09-29T11:29:52.100Z,4.63
2022-09-29T11:31:26.860Z,4.75
2022-09-29T11:33:16.888Z,4.50
2022-09-29T11:34:56.277Z,5.43
2022-09-29T11:36:49.211Z,5.47
2022-09-29T11:38:39.940Z,5.53
2022-09-29T11:40:21.239Z,5.30
2022-09-29T11:41:52.912Z,5.15
2022-09-29T11:43:27.819Z,4.68
2022-09-29T11:45:00.743Z,5.32
2022-09-29T11:46:46.146Z,5.00
2022-09-29T11:48:53.737Z,5.03
2022-09-29T11:50:31.267Z,4.00
2022-09-29T11:52:05.997Z,4.43
2022-09-29T11:54:06.494Z,4.00
2022-09-29T11:56:02.540Z,2.80
2022-09-29T11:57:43.538Z,2.53
2022-09-29T11:59:15.383Z,2.58
2022-09-29T12:01:03.448Z,2.10
2022-09-29T12:02:54.050Z,2.47
2022-09-29T12:04:25.987Z,2.50
2022-09-29T12:06:02.901Z,2.63
2022-09-29T12:07:43.544Z,3.13
2022-09-29T12:09:24.498Z,2.85
2022-09-29T12:11:37.365Z,4.00
2022-09-29T12:13:21.390Z,3.45
2022-09-29T12:15:02.031Z,3.75
2022-09-29T12:16:35.987Z,3.92
2022-09-29T12:18:14.298Z,3.75
2022-09-29T12:19:48.018Z,3.80
2022-09-29T12:21:27.382Z,4.05
2022-09-29T12:23:01.573Z,3.53
2022-09-29T12:24:49.225Z,3.50
2022-09-29T12:26:24.651Z,3.80
2022-09-29T12:29:33.559Z,3.72
2022-09-29T12:31:09.916Z,3.67
2022-09-29T12:32:44.788Z,2.80
2022-09-29T12:34:22.468Z,3.10
2022-09-29T12:35:56.969Z,3.15
2022-09-29T12:37:46.721Z,3.45
2022-09-29T12:41:56.630Z,3.85
2022-09-29T12:43:43.991Z,3.17
2022-09-29T12:45:34.964Z,3.95
2022-09-29T12:47:20.184Z,3.50
2022-09-29T12:48:56.224Z,2.72
2022-09-29T12:50:34.813Z,2.53
2022-09-29T12:52:13.052Z,2.08
2022-09-29T12:54:13.884Z,2.70
2022-09-29T12:55:49.148Z,2.42
2022-09-29T12:57:23.593Z,2.60
2022-09-29T12:58:59.134Z,2.50
2022-09-29T13:00:33.137Z,2.22
2022-09-29T13:02:30.896Z,2.20
2022-09-29T13:06:41.342Z,2.55
2022-09-29T13:08:34.864Z,2.42
2022-09-29T13:12:05.194Z,2.10
2022-09-29T13:13:47.843Z,2.28
2022-09-29T13:15:31.403Z,1.95
2022-09-29T13:17:09.211Z,1.20
2022-09-29T13:18:59.757Z,1.17
2022-09-29T13:21:11.250Z,1.35
2022-09-29T13:22:52.980Z,1.30
2022-09-29T13:24:24.759Z,1.25
2022-09-29T13:26:07.268Z,1.17
2022-09-29T13:27:44.568Z,1.23
2022-09-29T13:29:20.128Z,1.40
2022-09-29T13:30:56.281Z,1.30
2022-09-29T13:32:32.596Z,1.80
2022-09-29T13:36:25.948Z,1.20
2022-09-29T13:38:06.260Z,1.15
2022-09-29T13:39:38.985Z,0.77
2022-09-29T13:42:46.155Z,1.15
2022-09-29T13:44:18.027Z,0.70
2022-09-29T13:45:49.942Z,0.80
2022-09-29T13:47:31.894Z,0.65
2022-09-29T13:49:10.507Z,0.80
2022-09-29T13:51:00.580Z,1.02
2022-09-29T13:52:39.098Z,0.98
2022-09-29T13:54:20.185Z,1.30
2022-09-29T13:55:52.102Z,1.10
2022-09-29T13:57:30.818Z,1.00
2022-09-29T13:59:02.671Z,0.95
2022-09-29T14:00:34.537Z,1.00
2022-09-29T14:02:24.911Z,1.10
2022-09-29T14:03:56.761Z,1.00
2022-09-29T14:05:28.554Z,0.82
2022-09-29T14:07:02.333Z,1.10
2022-09-29T14:08:41.687Z,0.98
2022-09-29T14:10:19.404Z,1.25
2022-09-29T14:11:52.054Z,1.13
2022-09-29T14:13:32.964Z,1.30
2022-09-29T14:15:09.613Z,1.38
2022-09-29T14:16:47.558Z,1.23
2022-09-29T14:18:28.122Z,1.15
2022-09-29T14:20:06.104Z,1.40
2022-09-29T14:21:54.841Z,1.30
2022-09-29T14:23:45.868Z,1.40
2022-09-29T14:25:18.739Z,1.23
2022-09-29T14:26:54.847Z,0.93
2022-09-29T14:28:32.268Z,0.90
2022-09-29T14:30:03.991Z,1.02
2022-09-29T14:31:35.706Z,0.93
2022-09-29T14:33:19.412Z,1.20
2022-09-29T14:34:53.802Z,1.10
2022-09-29T14:36:26.242Z,0.98
2022-09-29T14:38:04.064Z,1.10
2022-09-29T14:39:39.580Z,1.50
2022-09-29T14:41:11.540Z,1.40
2022-09-29T14:42:43.212Z,1.63
2022-09-29T14:44:17.880Z,1.50
2022-09-29T14:46:08.485Z,1.40
2022-09-29T14:48:08.189Z,1.75
2022-09-29T14:50:09.990Z,2.50
2022-09-29T14:51:58.333Z,2.88
2022-09-29T14:53:48.622Z,2.67
2022-09-29T14:55:26.211Z,2.78
2022-09-29T14:57:01.134Z,3.30
2022-09-29T14:58:41.013Z,3.35
2022-09-29T15:00:17.310Z,3.90
2022-09-29T15:02:19.324Z,4.20
2022-09-29T15:03:52.193Z,4.45
2022-09-29T15:05:30.787Z,4.50
2022-09-29T15:07:04.086Z,4.25
2022-09-29T15:08:36.945Z,3.85
2022-09-29T15:11:51.137Z,3.70
2022-09-29T15:13:22.852Z,3.60
2022-09-29T15:14:58.376Z,4.35
2022-09-29T15:16:37.580Z,4.05
2022-09-29T15:18:29.705Z,3.75
2022-09-29T15:20:09.892Z,4.43
2022-09-29T15:22:07.963Z,4.03
2022-09-29T15:23:58.842Z,3.92
2022-09-29T15:25:41.577Z,4.07
2022-09-29T15:27:14.939Z,4.53
2022-09-29T15:28:47.814Z,3.95
2022-09-29T15:30:20.735Z,4.45
2022-09-29T15:31:52.614Z,4.07
2022-09-29T15:33:28.513Z,3.60
2022-09-29T15:35:02.676Z,3.90
2022-09-29T15:36:38.245Z,3.85
2022-09-29T15:38:17.012Z,3.80
2022-09-29T15:39:51.664Z,2.53
2022-09-29T15:41:27.600Z,3.30
2022-09-29T15:43:03.847Z,3.20
2022-09-29T15:44:35.638Z,3.50
2022-09-29T15:46:30.112Z,4.07
2022-09-29T15:48:06.490Z,4.47
2022-09-29T15:49:49.298Z,3.88
2022-09-29T15:51:21.242Z,4.38
2022-09-29T15:52:53.241Z,4.03
2022-09-29T15:54:28.673Z,4.70
2022-09-29T15:56:03.000Z,4.07
2022-09-29T15:57:50.542Z,3.05
2022-09-29T15:59:38.618Z,3.58
2022-09-29T16:01:12.491Z,4.10
2022-09-29T16:02:44.644Z,3.40
2022-09-29T16:04:30.013Z,3.70
2022-09-29T16:06:06.845Z,3.67
2022-09-29T16:07:41.490Z,3.50
2022-09-29T16:09:19.061Z,3.88
2022-09-29T16:11:01.350Z,4.22
2022-09-29T16:12:37.696Z,3.92
2022-09-29T16:14:09.795Z,3.75
2022-09-29T16:15:48.820Z,3.95
2022-09-29T16:17:20.985Z,4.00
2022-09-29T16:19:03.189Z,4.13
2022-09-29T16:20:42.687Z,4.00
2022-09-29T16:22:24.881Z,3.75
2022-09-29T16:24:13.053Z,4.03
2022-09-29T16:26:06.976Z,3.95
2022-09-29T16:27:43.792Z,4.22
2022-09-29T16:29:37.339Z,3.97
2022-09-29T16:31:42.054Z,3.80
2022-09-29T16:33:16.006Z,4.18
2022-09-29T16:34:50.656Z,4.13
2022-09-29T16:36:34.699Z,3.60
2022-09-29T16:38:18.145Z,4.10
2022-09-29T16:39:49.993Z,4.10
2022-09-29T16:41:41.356Z,4.50
2022-09-29T16:43:25.788Z,3.95
2022-09-29T16:44:59.275Z,4.45
2022-09-29T16:46:32.490Z,3.95
2022-09-29T16:48:08.615Z,4.55
2022-09-29T16:49:51.246Z,3.40
2022-09-29T16:51:40.219Z,4.80
2022-09-29T16:53:22.383Z,4.25
2022-09-29T16:55:17.222Z,3.78
2022-09-29T16:56:49.788Z,4.72
2022-09-29T16:58:23.397Z,4.68
2022-09-29T16:59:56.822Z,4.60
2022-09-29T17:01:29.477Z,4.32
2022-09-29T17:03:05.889Z,4.40
2022-09-29T17:04:38.136Z,3.88
2022-09-29T17:06:10.380Z,3.83
2022-09-29T17:07:42.397Z,4.13
2022-09-29T17:09:19.904Z,4.30
2022-09-29T17:10:52.877Z,4.55
2022-09-29T17:13:59.309Z,4.45
2022-09-29T17:15:31.162Z,4.47
2022-09-29T17:17:03.076Z,4.60
2022-09-29T17:18:34.911Z,5.35
2022-09-29T17:20:11.010Z,5.75
2022-09-29T17:21:43.123Z,5.00
2022-09-29T17:23:14.972Z,6.00
2022-09-29T17:24:46.863Z,5.82
2022-09-29T17:26:40.226Z,6.45
2022-09-29T17:28:16.605Z,5.32
2022-09-29T17:29:50.893Z,6.40
2022-09-29T17:31:22.894Z,6.75
2022-09-29T17:32:58.637Z,5.43
2022-09-29T17:34:33.159Z,5.28
2022-09-29T17:36:05.035Z,5.03
2022-09-29T17:37:38.169Z,5.33
2022-09-29T17:39:10.039Z,4.95
2022-09-29T17:41:02.580Z,5.22
2022-09-29T17:42:35.062Z,5.50
2022-09-29T17:44:09.039Z,5.50
2022-09-29T17:45:44.617Z,6.40
2022-09-29T17:47:27.819Z,5.78
2022-09-29T17:49:02.209Z,4.97
2022-09-29T17:50:45.181Z,5.70
2022-09-29T17:52:20.001Z,6.10
2022-09-29T17:53:51.865Z,6.45
2022-09-29T17:55:23.865Z,6.00
2022-09-29T17:57:02.609Z,5.87
2022-09-29T17:58:44.698Z,5.93
2022-09-29T18:00:27.450Z,5.75
2022-09-29T18:02:08.956Z,6.03
2022-09-29T18:03:50.719Z,6.10
2022-09-29T18:06:18.205Z,6.53
2022-09-29T18:08:27.847Z,6.03
2022-09-29T18:10:09.067Z,5.88
2022-09-29T18:11:48.249Z,6.00
2022-09-29T18:13:21.821Z,6.82
2022-09-29T18:14:53.729Z,7.88
2022-09-29T18:16:29.367Z,15.05
2022-09-29T18:18:04.697Z,20.38
2022-09-29T18:19:39.620Z,21.27
2022-09-29T18:21:19.978Z,25.13
2022-09-29T18:22:51.948Z,23.83
2022-09-29T18:24:23.886Z,21.90
2022-09-29T18:25:55.936Z,21.42
2022-09-29T18:27:28.428Z,20.27
2022-09-29T18:29:00.844Z,17.70
2022-09-29T18:30:35.295Z,17.17
2022-09-29T18:32:07.326Z,16.10
2022-09-29T18:33:41.170Z,14.30
2022-09-29T18:35:14.086Z,14.60
2022-09-29T18:36:46.012Z,13.20
2022-09-29T18:38:19.392Z,12.30
2022-09-29T18:39:51.157Z,11.20
2022-09-29T18:41:23.706Z,10.98
2022-09-29T18:42:59.819Z,10.80
2022-09-29T18:44:33.856Z,10.85
2022-09-29T18:46:05.713Z,10.07
2022-09-29T18:47:37.601Z,9.93
2022-09-29T18:49:10.856Z,10.25
2022-09-29T18:50:46.629Z,9.43
2022-09-29T18:52:18.553Z,9.65
2022-09-29T18:53:52.767Z,9.38
2022-09-29T18:55:30.244Z,8.98
2022-09-29T18:57:07.410Z,8.50
2022-09-29T18:58:41.482Z,8.65
2022-09-29T19:00:14.964Z,7.45
2022-09-29T19:01:46.881Z,8.18
2022-09-29T19:03:19.650Z,8.73
2022-09-29T19:04:53.943Z,8.65
2022-09-29T19:06:27.506Z,7.95
2022-09-29T19:08:00.709Z,8.27
2022-09-29T19:09:33.971Z,8.10
2022-09-29T19:11:06.262Z,8.52
2022-09-29T19:12:49.015Z,7.97
2022-09-29T19:14:23.452Z,8.27
2022-09-29T19:15:59.574Z,8.80
2022-09-29T19:17:33.916Z,9.15
2022-09-29T19:19:10.488Z,8.98
2022-09-29T19:20:42.217Z,9.43
2022-09-29T19:22:16.296Z,10.73
2022-09-29T19:23:48.391Z,9.90
2022-09-29T19:25:21.973Z,10.52
2022-09-29T19:26:53.951Z,11.00
2022-09-29T19:28:27.542Z,11.02
2022-09-29T19:30:03.536Z,9.70
2022-09-29T19:31:35.619Z,9.23
2022-09-29T19:33:08.561Z,9.18
2022-09-29T19:34:40.976Z,8.63
2022-09-29T19:36:16.731Z,9.80
2022-09-29T19:37:49.205Z,9.00
2022-09-29T19:39:20.892Z,9.40
2022-09-29T19:40:52.840Z,9.27
2022-09-29T19:42:28.757Z,10.52
2022-09-29T19:44:01.031Z,9.43
2022-09-29T19:45:39.836Z,9.98
2022-09-29T19:47:11.989Z,9.13
2022-09-29T19:48:44.145Z,8.98
2022-09-29T19:50:34.371Z,9.18
2022-09-29T19:52:06.618Z,9.45
2022-09-29T19:53:38.616Z,8.55
2022-09-29T19:55:13.045Z,9.38
2022-09-29T19:56:48.639Z,9.38
2022-09-29T19:58:20.703Z,9.52
2022-09-29T19:59:53.546Z,9.27
2022-09-29T20:02:58.808Z,8.90
2022-09-29T20:04:32.545Z,8.85
2022-09-29T20:06:06.734Z,9.40
2022-09-29T20:07:38.952Z,10.23
2022-09-29T20:09:10.886Z,8.48
2022-09-29T20:10:42.669Z,9.38
2022-09-29T20:12:19.201Z,10.45
2022-09-29T20:13:51.308Z,9.02
2022-09-29T20:15:23.503Z,9.40
2022-09-29T20:17:02.015Z,9.35
2022-09-29T20:18:37.351Z,8.77
2022-09-29T20:20:10.286Z,9.32
2022-09-29T20:21:43.498Z,9.25
2022-09-29T20:23:15.279Z,9.50
2022-09-29T20:24:48.246Z,9.85
2022-09-29T20:27:52.759Z,10.20
2022-09-29T20:29:24.639Z,10.18
2022-09-29T20:30:59.586Z,9.45
2022-09-29T20:32:33.576Z,10.50
2022-09-29T20:34:06.046Z,10.35
2022-09-29T20:35:38.848Z,10.63
2022-09-29T20:37:13.502Z,10.75
2022-09-29T20:38:47.720Z,10.73
2022-09-29T20:40:19.597Z,11.43
2022-09-29T20:41:54.294Z,10.10
2022-09-29T20:43:26.340Z,10.48
2022-09-29T20:44:58.264Z,10.32
2022-09-29T20:46:30.188Z,10.00
2022-09-29T20:48:01.957Z,10.47
2022-09-29T20:49:34.186Z,10.43
2022-09-29T20:51:08.577Z,10.23
2022-09-29T20:52:40.402Z,10.93
2022-09-29T20:54:12.937Z,10.68
2022-09-29T20:55:46.717Z,11.73
2022-09-29T20:57:18.468Z,10.65
2022-09-29T20:58:51.231Z,10.35
2022-09-29T21:01:55.821Z,10.98
2022-09-29T21:04:59.353Z,11.20
2022-09-29T21:06:34.640Z,10.98
2022-09-29T21:08:07.919Z,11.20
2022-09-29T21:09:42.599Z,11.68
2022-09-29T21:11:14.844Z,10.60
2022-09-29T21:12:46.501Z,10.65
2022-09-29T21:14:20.658Z,11.55
2022-09-29T21:15:52.411Z,10.98
2022-09-29T21:17:24.361Z,11.35
2022-09-29T21:19:01.981Z,10.95
2022-09-29T21:20:33.964Z,12.25
2022-09-29T21:22:06.082Z,11.77
2022-09-29T21:23:39.468Z,10.95
2022-09-29T21:25:11.224Z,11.43
2022-09-29T21:26:43.113Z,12.35
2022-09-29T21:28:14.903Z,11.20
2022-09-29T21:29:46.976Z,11.43
2022-09-29T21:31:20.692Z,11.45
2022-09-29T21:32:52.514Z,11.10
2022-09-29T21:34:24.564Z,11.25
2022-09-29T21:35:57.660Z,11.40
2022-09-29T21:37:29.476Z,11.52
2022-09-29T21:39:06.225Z,11.70
2022-09-29T21:40:39.745Z,11.30
2022-09-29T21:42:11.732Z,10.70
2022-09-29T21:43:44.373Z,11.40
2022-09-29T21:45:16.215Z,11.20
2022-09-29T21:46:48.188Z,13.10
2022-09-29T21:48:20.329Z,12.10
2022-09-29T21:49:53.461Z,12.48
2022-09-29T21:51:26.887Z,11.73
2022-09-29T21:53:00.922Z,10.60
2022-09-29T21:54:34.609Z,11.57
2022-09-29T21:56:10.601Z,12.40
2022-09-29T21:57:42.352Z,11.23
2022-09-29T21:59:16.010Z,11.50
2022-09-29T22:00:51.071Z,11.15
2022-09-29T22:02:23.026Z,11.63
2022-09-29T22:03:55.724Z,11.13
2022-09-29T22:05:27.709Z,11.10
2022-09-29T22:07:01.439Z,11.17
2022-09-29T22:08:33.437Z,11.32
2022-09-29T22:10:05.455Z,11.17
2022-09-29T22:11:42.809Z,11.77
2022-09-29T22:13:14.603Z,11.88
2022-09-29T22:14:49.053Z,11.70
2022-09-29T22:16:26.067Z,10.93
2022-09-29T22:17:57.966Z,11.20
2022-09-29T22:19:29.792Z,10.98
2022-09-29T22:21:02.668Z,10.57
2022-09-29T22:24:10.741Z,10.85
2022-09-29T22:25:46.336Z,11.15
2022-09-29T22:27:18.173Z,11.90
2022-09-29T22:28:51.103Z,10.23
2022-09-29T22:30:25.711Z,10.60
2022-09-29T22:31:57.579Z,10.85
2022-09-29T22:33:29.915Z,9.33
2022-09-29T22:35:01.831Z,9.65
2022-09-29T22:36:34.256Z,10.52
2022-09-29T22:38:08.325Z,11.00
2022-09-29T22:39:40.168Z,10.98
2022-09-29T22:41:13.965Z,9.85
2022-09-29T22:42:48.849Z,9.82
2022-09-29T22:44:22.910Z,10.25
2022-09-29T22:45:54.688Z,9.80